WMB weather

Warrnambool Airport
Victoria, Australia

Public forecast

Using degrees Celsius for public forecast. Weather courtesy of forecast.io.

Closest aviation weather report (METAR) to Warrnambool Airport

Closest report is Mount Gambier Airport, 85.3 nm (157.9 km) WNW. Retrieved 2020/06/05 12:00 UTC (39 minutes ago):

YMTG 051200Z AUTO 03002KT 9999 // BKN024 OVC036 08/07 Q1029

Closest aviation forecast (TAF) to Warrnambool Airport

Forecast is more than 6 hours old.

Closest forecast is Avalon Airport, 96.7 nm (179.0 km) E. Retrieved 2020/06/05 06:00 UTC (7 hours ago):

TAF YMAV 050537Z 0506/0606 29008KT 9999 SCT030 FM060300 20010KT 9999 -SHRA BKN025 TEMPO 0604/0606 5000 SHRA BKN015